sensor_id;sensor_type;location;lat;lon;timestamp;P1;durP1;ratioP1;P2;durP2;ratioP2
56868;SDS011;42754;0.000;0.000;2022-08-14T00:00:16;4.93;;;4.05;;
56868;SDS011;42754;0.000;0.000;2022-08-14T00:02:43;4.30;;;3.80;;
56868;SDS011;42754;0.000;0.000;2022-08-14T00:05:11;5.20;;;4.32;;
56868;SDS011;42754;0.000;0.000;2022-08-14T00:07:38;6.25;;;3.90;;
56868;SDS011;42754;0.000;0.000;2022-08-14T00:10:06;4.93;;;4.20;;
56868;SDS011;42754;0.000;0.000;2022-08-14T00:12:36;4.43;;;4.00;;
56868;SDS011;42754;0.000;0.000;2022-08-14T00:15:06;7.65;;;4.18;;
56868;SDS011;42754;0.000;0.000;2022-08-14T00:17:44;4.57;;;4.13;;
56868;SDS011;42754;0.000;0.000;2022-08-14T00:20:10;4.65;;;3.90;;
56868;SDS011;42754;0.000;0.000;2022-08-14T00:22:36;5.72;;;4.35;;
56868;SDS011;42754;0.000;0.000;2022-08-14T00:25:03;5.72;;;4.32;;
56868;SDS011;42754;0.000;0.000;2022-08-14T00:27:32;5.32;;;4.22;;
56868;SDS011;42754;0.000;0.000;2022-08-14T00:29:58;6.03;;;4.82;;
56868;SDS011;42754;0.000;0.000;2022-08-14T00:32:23;5.40;;;4.40;;
56868;SDS011;42754;0.000;0.000;2022-08-14T00:34:49;6.00;;;4.45;;
56868;SDS011;42754;0.000;0.000;2022-08-14T00:37:14;10.63;;;4.95;;
56868;SDS011;42754;0.000;0.000;2022-08-14T00:39:40;9.48;;;4.25;;
56868;SDS011;42754;0.000;0.000;2022-08-14T00:42:06;6.07;;;4.18;;
56868;SDS011;42754;0.000;0.000;2022-08-14T00:44:32;8.48;;;4.20;;
56868;SDS011;42754;0.000;0.000;2022-08-14T00:46:57;6.22;;;4.53;;
56868;SDS011;42754;0.000;0.000;2022-08-14T00:49:24;6.45;;;4.53;;
56868;SDS011;42754;0.000;0.000;2022-08-14T00:51:50;8.07;;;4.75;;
56868;SDS011;42754;0.000;0.000;2022-08-14T00:54:16;5.68;;;4.63;;
56868;SDS011;42754;0.000;0.000;2022-08-14T00:56:42;8.52;;;4.82;;
56868;SDS011;42754;0.000;0.000;2022-08-14T00:59:08;5.82;;;4.50;;
56868;SDS011;42754;0.000;0.000;2022-08-14T01:01:35;6.47;;;4.82;;
56868;SDS011;42754;0.000;0.000;2022-08-14T01:04:04;7.55;;;4.88;;
56868;SDS011;42754;0.000;0.000;2022-08-14T01:06:29;5.63;;;4.75;;
56868;SDS011;42754;0.000;0.000;2022-08-14T01:08:57;7.65;;;4.88;;
56868;SDS011;42754;0.000;0.000;2022-08-14T01:11:24;7.90;;;5.65;;
56868;SDS011;42754;0.000;0.000;2022-08-14T01:13:54;9.05;;;5.43;;
56868;SDS011;42754;0.000;0.000;2022-08-14T01:16:25;5.70;;;4.88;;
56868;SDS011;42754;0.000;0.000;2022-08-14T01:18:51;7.50;;;4.90;;
56868;SDS011;42754;0.000;0.000;2022-08-14T01:21:37;9.48;;;5.38;;
56868;SDS011;42754;0.000;0.000;2022-08-14T01:24:05;7.78;;;4.85;;
56868;SDS011;42754;0.000;0.000;2022-08-14T01:26:33;6.15;;;5.15;;
56868;SDS011;42754;0.000;0.000;2022-08-14T01:28:59;6.93;;;5.20;;
56868;SDS011;42754;0.000;0.000;2022-08-14T01:31:28;7.00;;;5.40;;
56868;SDS011;42754;0.000;0.000;2022-08-14T01:33:56;12.57;;;5.50;;
56868;SDS011;42754;0.000;0.000;2022-08-14T01:36:24;6.93;;;5.40;;
56868;SDS011;42754;0.000;0.000;2022-08-14T01:38:52;7.95;;;5.47;;
56868;SDS011;42754;0.000;0.000;2022-08-14T01:41:22;8.10;;;5.13;;
56868;SDS011;42754;0.000;0.000;2022-08-14T01:43:57;7.90;;;5.15;;
56868;SDS011;42754;0.000;0.000;2022-08-14T01:46:32;5.50;;;4.88;;
56868;SDS011;42754;0.000;0.000;2022-08-14T01:49:01;8.35;;;5.15;;
56868;SDS011;42754;0.000;0.000;2022-08-14T01:51:30;7.72;;;5.90;;
56868;SDS011;42754;0.000;0.000;2022-08-14T01:54:07;7.68;;;5.22;;
56868;SDS011;42754;0.000;0.000;2022-08-14T01:56:36;8.45;;;5.20;;
56868;SDS011;42754;0.000;0.000;2022-08-14T01:59:04;9.52;;;5.82;;
56868;SDS011;42754;0.000;0.000;2022-08-14T02:01:31;7.40;;;5.63;;
56868;SDS011;42754;0.000;0.000;2022-08-14T02:04:00;7.70;;;5.28;;
56868;SDS011;42754;0.000;0.000;2022-08-14T02:06:29;6.43;;;5.25;;
56868;SDS011;42754;0.000;0.000;2022-08-14T02:08:55;6.88;;;5.75;;
56868;SDS011;42754;0.000;0.000;2022-08-14T02:11:21;6.95;;;5.25;;
56868;SDS011;42754;0.000;0.000;2022-08-14T02:16:21;11.00;;;5.78;;
56868;SDS011;42754;0.000;0.000;2022-08-14T02:18:52;8.88;;;5.28;;
56868;SDS011;42754;0.000;0.000;2022-08-14T02:21:19;12.50;;;6.15;;
56868;SDS011;42754;0.000;0.000;2022-08-14T02:23:46;7.38;;;5.68;;
56868;SDS011;42754;0.000;0.000;2022-08-14T02:26:13;7.72;;;5.60;;
56868;SDS011;42754;0.000;0.000;2022-08-14T02:28:50;9.75;;;5.78;;
56868;SDS011;42754;0.000;0.000;2022-08-14T02:31:18;9.45;;;6.43;;
56868;SDS011;42754;0.000;0.000;2022-08-14T02:33:43;9.02;;;5.60;;
56868;SDS011;42754;0.000;0.000;2022-08-14T02:36:11;8.50;;;5.75;;
56868;SDS011;42754;0.000;0.000;2022-08-14T02:38:37;9.32;;;6.47;;
56868;SDS011;42754;0.000;0.000;2022-08-14T02:41:08;11.20;;;6.18;;
56868;SDS011;42754;0.000;0.000;2022-08-14T02:43:35;7.68;;;6.00;;
56868;SDS011;42754;0.000;0.000;2022-08-14T02:46:05;10.30;;;6.18;;
56868;SDS011;42754;0.000;0.000;2022-08-14T02:48:33;8.57;;;5.80;;
56868;SDS011;42754;0.000;0.000;2022-08-14T02:51:01;9.15;;;6.10;;
56868;SDS011;42754;0.000;0.000;2022-08-14T02:53:29;9.00;;;6.10;;
56868;SDS011;42754;0.000;0.000;2022-08-14T02:55:55;9.63;;;6.68;;
56868;SDS011;42754;0.000;0.000;2022-08-14T02:58:22;8.00;;;5.95;;
56868;SDS011;42754;0.000;0.000;2022-08-14T03:00:49;8.82;;;6.28;;
56868;SDS011;42754;0.000;0.000;2022-08-14T03:03:15;11.85;;;7.30;;
56868;SDS011;42754;0.000;0.000;2022-08-14T03:05:41;7.95;;;6.50;;
56868;SDS011;42754;0.000;0.000;2022-08-14T03:08:09;10.07;;;6.40;;
56868;SDS011;42754;0.000;0.000;2022-08-14T03:10:36;8.02;;;6.13;;
56868;SDS011;42754;0.000;0.000;2022-08-14T03:13:02;7.78;;;6.38;;
56868;SDS011;42754;0.000;0.000;2022-08-14T03:15:29;9.43;;;6.53;;
56868;SDS011;42754;0.000;0.000;2022-08-14T03:17:57;10.05;;;6.50;;
56868;SDS011;42754;0.000;0.000;2022-08-14T03:20:23;8.63;;;5.85;;
56868;SDS011;42754;0.000;0.000;2022-08-14T03:22:53;8.30;;;6.20;;
56868;SDS011;42754;0.000;0.000;2022-08-14T03:25:23;9.43;;;6.32;;
56868;SDS011;42754;0.000;0.000;2022-08-14T03:27:49;9.70;;;6.38;;
56868;SDS011;42754;0.000;0.000;2022-08-14T03:30:15;8.20;;;6.43;;
56868;SDS011;42754;0.000;0.000;2022-08-14T03:32:40;7.65;;;6.20;;
56868;SDS011;42754;0.000;0.000;2022-08-14T03:35:07;10.57;;;6.55;;
56868;SDS011;42754;0.000;0.000;2022-08-14T03:37:33;8.32;;;6.15;;
56868;SDS011;42754;0.000;0.000;2022-08-14T03:39:58;8.55;;;6.43;;
56868;SDS011;42754;0.000;0.000;2022-08-14T03:42:24;9.73;;;6.65;;
56868;SDS011;42754;0.000;0.000;2022-08-14T03:44:50;9.70;;;6.50;;
56868;SDS011;42754;0.000;0.000;2022-08-14T03:47:16;9.25;;;6.38;;
56868;SDS011;42754;0.000;0.000;2022-08-14T03:49:42;8.73;;;6.50;;
56868;SDS011;42754;0.000;0.000;2022-08-14T03:52:10;8.57;;;6.03;;
56868;SDS011;42754;0.000;0.000;2022-08-14T03:54:37;9.05;;;6.45;;
56868;SDS011;42754;0.000;0.000;2022-08-14T03:57:03;8.20;;;6.20;;
56868;SDS011;42754;0.000;0.000;2022-08-14T03:59:32;9.80;;;6.38;;
56868;SDS011;42754;0.000;0.000;2022-08-14T04:01:58;8.70;;;5.85;;
56868;SDS011;42754;0.000;0.000;2022-08-14T04:04:30;7.78;;;6.55;;
56868;SDS011;42754;0.000;0.000;2022-08-14T04:06:56;12.48;;;7.25;;
56868;SDS011;42754;0.000;0.000;2022-08-14T04:09:24;9.55;;;7.35;;
56868;SDS011;42754;0.000;0.000;2022-08-14T04:11:50;8.75;;;7.22;;
56868;SDS011;42754;0.000;0.000;2022-08-14T04:14:15;8.65;;;6.72;;
56868;SDS011;42754;0.000;0.000;2022-08-14T04:16:41;8.60;;;5.97;;
56868;SDS011;42754;0.000;0.000;2022-08-14T04:19:12;10.10;;;7.18;;
56868;SDS011;42754;0.000;0.000;2022-08-14T04:21:43;12.48;;;7.00;;
56868;SDS011;42754;0.000;0.000;2022-08-14T04:24:09;14.25;;;7.28;;
56868;SDS011;42754;0.000;0.000;2022-08-14T04:26:37;9.98;;;7.07;;
56868;SDS011;42754;0.000;0.000;2022-08-14T04:29:03;9.60;;;7.75;;
56868;SDS011;42754;0.000;0.000;2022-08-14T04:31:29;10.25;;;7.82;;
56868;SDS011;42754;0.000;0.000;2022-08-14T04:33:54;8.95;;;6.90;;
56868;SDS011;42754;0.000;0.000;2022-08-14T04:36:20;9.07;;;6.68;;
56868;SDS011;42754;0.000;0.000;2022-08-14T04:38:46;10.10;;;7.35;;
56868;SDS011;42754;0.000;0.000;2022-08-14T04:41:30;11.65;;;7.63;;
56868;SDS011;42754;0.000;0.000;2022-08-14T04:44:14;12.35;;;6.80;;
56868;SDS011;42754;0.000;0.000;2022-08-14T04:46:40;11.38;;;7.97;;
56868;SDS011;42754;0.000;0.000;2022-08-14T04:49:26;12.73;;;8.00;;
56868;SDS011;42754;0.000;0.000;2022-08-14T04:51:53;10.35;;;7.25;;
56868;SDS011;42754;0.000;0.000;2022-08-14T04:54:18;12.80;;;8.07;;
56868;SDS011;42754;0.000;0.000;2022-08-14T04:56:44;9.57;;;6.85;;
56868;SDS011;42754;0.000;0.000;2022-08-14T04:59:09;12.60;;;7.38;;
56868;SDS011;42754;0.000;0.000;2022-08-14T05:01:35;14.60;;;8.02;;
56868;SDS011;42754;0.000;0.000;2022-08-14T05:04:01;9.70;;;7.13;;
56868;SDS011;42754;0.000;0.000;2022-08-14T05:06:26;9.95;;;6.50;;
56868;SDS011;42754;0.000;0.000;2022-08-14T05:08:53;8.98;;;6.60;;
56868;SDS011;42754;0.000;0.000;2022-08-14T05:11:18;10.88;;;6.65;;
56868;SDS011;42754;0.000;0.000;2022-08-14T05:13:44;10.00;;;6.75;;
56868;SDS011;42754;0.000;0.000;2022-08-14T05:16:10;11.20;;;7.47;;
56868;SDS011;42754;0.000;0.000;2022-08-14T05:18:37;13.82;;;8.40;;
56868;SDS011;42754;0.000;0.000;2022-08-14T05:21:03;9.40;;;6.63;;
56868;SDS011;42754;0.000;0.000;2022-08-14T05:23:31;11.02;;;7.05;;
56868;SDS011;42754;0.000;0.000;2022-08-14T05:25:59;13.00;;;7.20;;
56868;SDS011;42754;0.000;0.000;2022-08-14T05:28:27;10.45;;;6.70;;
56868;SDS011;42754;0.000;0.000;2022-08-14T05:30:55;11.82;;;6.68;;
56868;SDS011;42754;0.000;0.000;2022-08-14T05:33:25;16.48;;;6.93;;
56868;SDS011;42754;0.000;0.000;2022-08-14T05:35:52;14.38;;;7.18;;
56868;SDS011;42754;0.000;0.000;2022-08-14T05:38:27;12.02;;;6.88;;
56868;SDS011;42754;0.000;0.000;2022-08-14T05:40:58;9.95;;;7.03;;
56868;SDS011;42754;0.000;0.000;2022-08-14T05:43:24;10.68;;;6.65;;
56868;SDS011;42754;0.000;0.000;2022-08-14T05:45:50;7.53;;;6.35;;
56868;SDS011;42754;0.000;0.000;2022-08-14T05:48:15;13.27;;;9.02;;
56868;SDS011;42754;0.000;0.000;2022-08-14T05:50:41;10.15;;;7.43;;
56868;SDS011;42754;0.000;0.000;2022-08-14T05:53:07;11.40;;;8.32;;
56868;SDS011;42754;0.000;0.000;2022-08-14T05:55:33;13.00;;;8.63;;
56868;SDS011;42754;0.000;0.000;2022-08-14T05:58:01;13.43;;;8.70;;
56868;SDS011;42754;0.000;0.000;2022-08-14T06:00:30;13.68;;;9.70;;
56868;SDS011;42754;0.000;0.000;2022-08-14T06:02:58;13.68;;;9.45;;
56868;SDS011;42754;0.000;0.000;2022-08-14T06:05:24;11.43;;;8.95;;
56868;SDS011;42754;0.000;0.000;2022-08-14T06:07:51;13.95;;;9.73;;
56868;SDS011;42754;0.000;0.000;2022-08-14T06:10:17;17.15;;;9.95;;
56868;SDS011;42754;0.000;0.000;2022-08-14T06:12:42;15.20;;;10.38;;
56868;SDS011;42754;0.000;0.000;2022-08-14T06:15:08;15.52;;;10.50;;
56868;SDS011;42754;0.000;0.000;2022-08-14T06:17:48;12.80;;;8.93;;
56868;SDS011;42754;0.000;0.000;2022-08-14T06:20:15;12.35;;;9.30;;
56868;SDS011;42754;0.000;0.000;2022-08-14T06:22:42;15.88;;;9.48;;
56868;SDS011;42754;0.000;0.000;2022-08-14T06:25:09;12.82;;;9.48;;
56868;SDS011;42754;0.000;0.000;2022-08-14T06:27:36;14.82;;;9.63;;
56868;SDS011;42754;0.000;0.000;2022-08-14T06:30:09;15.15;;;10.30;;
56868;SDS011;42754;0.000;0.000;2022-08-14T06:32:40;13.60;;;10.00;;
56868;SDS011;42754;0.000;0.000;2022-08-14T06:35:06;17.08;;;10.32;;
56868;SDS011;42754;0.000;0.000;2022-08-14T06:40:11;14.73;;;10.05;;
56868;SDS011;42754;0.000;0.000;2022-08-14T06:42:41;15.15;;;10.18;;
56868;SDS011;42754;0.000;0.000;2022-08-14T06:45:07;17.05;;;10.63;;
56868;SDS011;42754;0.000;0.000;2022-08-14T06:47:34;13.57;;;9.52;;
56868;SDS011;42754;0.000;0.000;2022-08-14T06:50:04;11.88;;;9.57;;
56868;SDS011;42754;0.000;0.000;2022-08-14T06:52:31;11.80;;;9.65;;
56868;SDS011;42754;0.000;0.000;2022-08-14T06:54:57;18.58;;;10.60;;
56868;SDS011;42754;0.000;0.000;2022-08-14T06:57:23;15.00;;;10.13;;
56868;SDS011;42754;0.000;0.000;2022-08-14T06:59:50;14.43;;;9.90;;
56868;SDS011;42754;0.000;0.000;2022-08-14T07:02:16;14.32;;;10.02;;
56868;SDS011;42754;0.000;0.000;2022-08-14T07:05:00;15.05;;;9.85;;
56868;SDS011;42754;0.000;0.000;2022-08-14T07:07:44;14.77;;;9.77;;
56868;SDS011;42754;0.000;0.000;2022-08-14T07:10:11;12.68;;;9.02;;
56868;SDS011;42754;0.000;0.000;2022-08-14T07:12:37;15.27;;;9.73;;
56868;SDS011;42754;0.000;0.000;2022-08-14T07:15:03;13.48;;;10.38;;
56868;SDS011;42754;0.000;0.000;2022-08-14T07:17:30;15.70;;;10.10;;
56868;SDS011;42754;0.000;0.000;2022-08-14T07:19:55;13.38;;;9.57;;
56868;SDS011;42754;0.000;0.000;2022-08-14T07:22:21;13.85;;;9.50;;
56868;SDS011;42754;0.000;0.000;2022-08-14T07:24:48;16.08;;;8.88;;
56868;SDS011;42754;0.000;0.000;2022-08-14T07:27:13;14.50;;;9.68;;
56868;SDS011;42754;0.000;0.000;2022-08-14T07:29:39;14.50;;;10.20;;
56868;SDS011;42754;0.000;0.000;2022-08-14T07:32:05;13.75;;;9.80;;
56868;SDS011;42754;0.000;0.000;2022-08-14T07:34:30;14.63;;;9.07;;
56868;SDS011;42754;0.000;0.000;2022-08-14T07:36:56;13.75;;;10.30;;
56868;SDS011;42754;0.000;0.000;2022-08-14T07:39:22;15.48;;;9.50;;
56868;SDS011;42754;0.000;0.000;2022-08-14T07:41:47;13.38;;;9.07;;
56868;SDS011;42754;0.000;0.000;2022-08-14T07:44:13;11.93;;;8.00;;
56868;SDS011;42754;0.000;0.000;2022-08-14T07:46:39;12.23;;;7.50;;
56868;SDS011;42754;0.000;0.000;2022-08-14T07:49:05;10.43;;;8.20;;
56868;SDS011;42754;0.000;0.000;2022-08-14T07:51:31;12.35;;;9.93;;
56868;SDS011;42754;0.000;0.000;2022-08-14T07:53:57;13.50;;;8.65;;
56868;SDS011;42754;0.000;0.000;2022-08-14T07:56:24;13.57;;;9.10;;
56868;SDS011;42754;0.000;0.000;2022-08-14T07:58:49;14.20;;;8.82;;
56868;SDS011;42754;0.000;0.000;2022-08-14T08:01:16;13.73;;;8.02;;
56868;SDS011;42754;0.000;0.000;2022-08-14T08:03:43;14.18;;;8.48;;
56868;SDS011;42754;0.000;0.000;2022-08-14T08:06:11;18.85;;;9.27;;
56868;SDS011;42754;0.000;0.000;2022-08-14T08:08:38;9.32;;;7.32;;
56868;SDS011;42754;0.000;0.000;2022-08-14T08:11:06;12.55;;;7.72;;
56868;SDS011;42754;0.000;0.000;2022-08-14T08:13:32;9.55;;;7.50;;
56868;SDS011;42754;0.000;0.000;2022-08-14T08:15:59;10.80;;;8.95;;
56868;SDS011;42754;0.000;0.000;2022-08-14T08:18:27;10.18;;;7.55;;
56868;SDS011;42754;0.000;0.000;2022-08-14T08:20:53;12.27;;;8.73;;
56868;SDS011;42754;0.000;0.000;2022-08-14T08:23:20;14.60;;;8.45;;
56868;SDS011;42754;0.000;0.000;2022-08-14T08:25:56;10.60;;;7.75;;
56868;SDS011;42754;0.000;0.000;2022-08-14T08:28:24;11.13;;;8.23;;
56868;SDS011;42754;0.000;0.000;2022-08-14T08:30:59;11.27;;;7.70;;
56868;SDS011;42754;0.000;0.000;2022-08-14T08:33:28;9.27;;;7.10;;
56868;SDS011;42754;0.000;0.000;2022-08-14T08:35:59;9.68;;;7.43;;
56868;SDS011;42754;0.000;0.000;2022-08-14T08:38:29;10.75;;;7.40;;
56868;SDS011;42754;0.000;0.000;2022-08-14T08:40:56;10.38;;;6.47;;
56868;SDS011;42754;0.000;0.000;2022-08-14T08:43:31;9.65;;;7.05;;
56868;SDS011;42754;0.000;0.000;2022-08-14T08:45:59;8.57;;;7.40;;
56868;SDS011;42754;0.000;0.000;2022-08-14T08:48:47;9.25;;;6.70;;
56868;SDS011;42754;0.000;0.000;2022-08-14T08:54:00;8.82;;;6.97;;
56868;SDS011;42754;0.000;0.000;2022-08-14T08:56:41;8.20;;;7.38;;
56868;SDS011;42754;0.000;0.000;2022-08-14T08:59:24;9.05;;;6.65;;
56868;SDS011;42754;0.000;0.000;2022-08-14T09:01:53;11.27;;;6.38;;
56868;SDS011;42754;0.000;0.000;2022-08-14T09:04:29;7.10;;;5.72;;
56868;SDS011;42754;0.000;0.000;2022-08-14T09:06:58;11.60;;;7.03;;
56868;SDS011;42754;0.000;0.000;2022-08-14T09:09:25;7.65;;;6.85;;
56868;SDS011;42754;0.000;0.000;2022-08-14T09:11:55;9.90;;;7.20;;
56868;SDS011;42754;0.000;0.000;2022-08-14T09:14:23;7.80;;;6.97;;
56868;SDS011;42754;0.000;0.000;2022-08-14T09:16:51;10.50;;;6.88;;
56868;SDS011;42754;0.000;0.000;2022-08-14T09:19:18;9.90;;;6.70;;
56868;SDS011;42754;0.000;0.000;2022-08-14T09:21:45;9.80;;;6.90;;
56868;SDS011;42754;0.000;0.000;2022-08-14T09:24:12;11.55;;;7.13;;
56868;SDS011;42754;0.000;0.000;2022-08-14T09:26:38;10.82;;;6.47;;
56868;SDS011;42754;0.000;0.000;2022-08-14T09:29:05;10.98;;;6.35;;
56868;SDS011;42754;0.000;0.000;2022-08-14T09:31:33;7.55;;;6.18;;
56868;SDS011;42754;0.000;0.000;2022-08-14T09:39:36;9.20;;;5.88;;
56868;SDS011;42754;0.000;0.000;2022-08-14T09:45:21;7.88;;;6.30;;
56868;SDS011;42754;0.000;0.000;2022-08-14T09:47:56;11.27;;;6.72;;
56868;SDS011;42754;0.000;0.000;2022-08-14T09:50:29;9.82;;;6.15;;
56868;SDS011;42754;0.000;0.000;2022-08-14T09:53:04;7.90;;;6.30;;
56868;SDS011;42754;0.000;0.000;2022-08-14T09:55:32;8.35;;;6.20;;
56868;SDS011;42754;0.000;0.000;2022-08-14T10:00:46;7.35;;;6.18;;
56868;SDS011;42754;0.000;0.000;2022-08-14T10:03:31;14.02;;;7.13;;
56868;SDS011;42754;0.000;0.000;2022-08-14T10:06:05;9.00;;;5.75;;
56868;SDS011;42754;0.000;0.000;2022-08-14T10:09:09;6.60;;;5.28;;
56868;SDS011;42754;0.000;0.000;2022-08-14T10:11:34;7.55;;;5.30;;
56868;SDS011;42754;0.000;0.000;2022-08-14T10:14:11;7.68;;;5.10;;
56868;SDS011;42754;0.000;0.000;2022-08-14T10:16:46;9.60;;;5.35;;
56868;SDS011;42754;0.000;0.000;2022-08-14T10:19:15;4.82;;;4.32;;
56868;SDS011;42754;0.000;0.000;2022-08-14T10:21:44;6.22;;;5.18;;
56868;SDS011;42754;0.000;0.000;2022-08-14T10:24:29;6.15;;;5.25;;
56868;SDS011;42754;0.000;0.000;2022-08-14T10:26:58;8.40;;;5.60;;
56868;SDS011;42754;0.000;0.000;2022-08-14T10:29:35;7.88;;;5.18;;
56868;SDS011;42754;0.000;0.000;2022-08-14T10:32:05;5.57;;;5.07;;
56868;SDS011;42754;0.000;0.000;2022-08-14T10:34:36;8.52;;;5.05;;
56868;SDS011;42754;0.000;0.000;2022-08-14T10:37:10;7.88;;;5.05;;
56868;SDS011;42754;0.000;0.000;2022-08-14T10:39:38;7.63;;;5.80;;
56868;SDS011;42754;0.000;0.000;2022-08-14T10:42:08;6.22;;;5.00;;
56868;SDS011;42754;0.000;0.000;2022-08-14T10:44:37;7.72;;;5.15;;
56868;SDS011;42754;0.000;0.000;2022-08-14T10:47:05;10.27;;;5.47;;
56868;SDS011;42754;0.000;0.000;2022-08-14T10:49:34;6.15;;;5.22;;
56868;SDS011;42754;0.000;0.000;2022-08-14T10:52:07;7.25;;;4.90;;
56868;SDS011;42754;0.000;0.000;2022-08-14T10:54:38;6.22;;;4.97;;
56868;SDS011;42754;0.000;0.000;2022-08-14T10:57:12;5.93;;;5.32;;
56868;SDS011;42754;0.000;0.000;2022-08-14T11:00:12;6.95;;;4.45;;
56868;SDS011;42754;0.000;0.000;2022-08-14T11:02:40;7.43;;;5.70;;
56868;SDS011;42754;0.000;0.000;2022-08-14T11:05:08;6.80;;;4.95;;
56868;SDS011;42754;0.000;0.000;2022-08-14T11:07:53;7.38;;;4.93;;
56868;SDS011;42754;0.000;0.000;2022-08-14T11:10:21;6.53;;;5.20;;
56868;SDS011;42754;0.000;0.000;2022-08-14T11:12:51;6.65;;;4.70;;
56868;SDS011;42754;0.000;0.000;2022-08-14T11:15:21;6.65;;;5.10;;
56868;SDS011;42754;0.000;0.000;2022-08-14T11:17:49;5.55;;;5.00;;
56868;SDS011;42754;0.000;0.000;2022-08-14T11:20:20;7.95;;;5.05;;
56868;SDS011;42754;0.000;0.000;2022-08-14T11:22:51;5.78;;;5.18;;
56868;SDS011;42754;0.000;0.000;2022-08-14T11:25:19;6.15;;;5.50;;
56868;SDS011;42754;0.000;0.000;2022-08-14T11:27:47;6.03;;;4.45;;
56868;SDS011;42754;0.000;0.000;2022-08-14T11:30:18;7.07;;;5.15;;
56868;SDS011;42754;0.000;0.000;2022-08-14T11:32:46;7.93;;;4.70;;
56868;SDS011;42754;0.000;0.000;2022-08-14T11:35:13;6.18;;;5.28;;
56868;SDS011;42754;0.000;0.000;2022-08-14T11:37:55;7.47;;;5.20;;
56868;SDS011;42754;0.000;0.000;2022-08-14T11:40:27;6.20;;;4.80;;
56868;SDS011;42754;0.000;0.000;2022-08-14T11:42:55;7.95;;;5.03;;
56868;SDS011;42754;0.000;0.000;2022-08-14T11:45:22;8.18;;;5.38;;
56868;SDS011;42754;0.000;0.000;2022-08-14T11:47:59;7.22;;;5.03;;
56868;SDS011;42754;0.000;0.000;2022-08-14T11:50:27;5.90;;;4.68;;
56868;SDS011;42754;0.000;0.000;2022-08-14T11:52:55;5.70;;;5.00;;
56868;SDS011;42754;0.000;0.000;2022-08-14T11:55:25;6.45;;;4.80;;
56868;SDS011;42754;0.000;0.000;2022-08-14T11:58:01;6.50;;;5.20;;
56868;SDS011;42754;0.000;0.000;2022-08-14T12:00:44;6.38;;;5.15;;
56868;SDS011;42754;0.000;0.000;2022-08-14T12:03:11;6.10;;;5.30;;
56868;SDS011;42754;0.000;0.000;2022-08-14T12:05:37;7.30;;;5.13;;
56868;SDS011;42754;0.000;0.000;2022-08-14T12:08:06;8.35;;;4.85;;
56868;SDS011;42754;0.000;0.000;2022-08-14T12:10:33;6.22;;;5.13;;
56868;SDS011;42754;0.000;0.000;2022-08-14T12:13:12;8.23;;;5.15;;
56868;SDS011;42754;0.000;0.000;2022-08-14T12:15:40;5.68;;;5.07;;
56868;SDS011;42754;0.000;0.000;2022-08-14T12:18:06;6.78;;;4.47;;
56868;SDS011;42754;0.000;0.000;2022-08-14T12:20:33;4.57;;;3.95;;
56868;SDS011;42754;0.000;0.000;2022-08-14T12:23:02;6.10;;;4.75;;
56868;SDS011;42754;0.000;0.000;2022-08-14T12:25:29;6.22;;;4.65;;
56868;SDS011;42754;0.000;0.000;2022-08-14T12:27:56;6.60;;;4.72;;
56868;SDS011;42754;0.000;0.000;2022-08-14T12:32:57;4.38;;;3.60;;
56868;SDS011;42754;0.000;0.000;2022-08-14T12:38:09;6.15;;;4.47;;
56868;SDS011;42754;0.000;0.000;2022-08-14T12:40:46;4.47;;;4.07;;
56868;SDS011;42754;0.000;0.000;2022-08-14T12:43:13;4.85;;;4.38;;
56868;SDS011;42754;0.000;0.000;2022-08-14T12:45:45;5.20;;;4.50;;
56868;SDS011;42754;0.000;0.000;2022-08-14T12:48:16;8.98;;;4.57;;
56868;SDS011;42754;0.000;0.000;2022-08-14T12:50:43;5.30;;;4.53;;
56868;SDS011;42754;0.000;0.000;2022-08-14T12:53:09;5.82;;;4.80;;
56868;SDS011;42754;0.000;0.000;2022-08-14T12:55:40;6.00;;;4.55;;
56868;SDS011;42754;0.000;0.000;2022-08-14T12:58:07;5.88;;;4.38;;
56868;SDS011;42754;0.000;0.000;2022-08-14T13:00:35;6.00;;;4.10;;
56868;SDS011;42754;0.000;0.000;2022-08-14T13:03:03;5.07;;;4.57;;
56868;SDS011;42754;0.000;0.000;2022-08-14T13:05:30;5.25;;;4.65;;
56868;SDS011;42754;0.000;0.000;2022-08-14T13:07:59;4.90;;;4.00;;
56868;SDS011;42754;0.000;0.000;2022-08-14T13:10:30;5.00;;;4.20;;
56868;SDS011;42754;0.000;0.000;2022-08-14T13:12:57;4.95;;;3.90;;
56868;SDS011;42754;0.000;0.000;2022-08-14T13:15:24;7.68;;;4.38;;
56868;SDS011;42754;0.000;0.000;2022-08-14T13:17:51;4.55;;;4.10;;
56868;SDS011;42754;0.000;0.000;2022-08-14T13:20:21;6.32;;;4.65;;
56868;SDS011;42754;0.000;0.000;2022-08-14T13:22:48;5.93;;;4.05;;
56868;SDS011;42754;0.000;0.000;2022-08-14T13:25:15;5.88;;;4.28;;
56868;SDS011;42754;0.000;0.000;2022-08-14T13:27:45;4.85;;;4.32;;
56868;SDS011;42754;0.000;0.000;2022-08-14T13:30:12;5.28;;;4.10;;
56868;SDS011;42754;0.000;0.000;2022-08-14T13:32:39;6.68;;;4.32;;
56868;SDS011;42754;0.000;0.000;2022-08-14T13:35:08;6.15;;;4.40;;
56868;SDS011;42754;0.000;0.000;2022-08-14T13:37:35;8.98;;;4.45;;
56868;SDS011;42754;0.000;0.000;2022-08-14T13:40:01;6.00;;;4.22;;
56868;SDS011;42754;0.000;0.000;2022-08-14T13:42:28;5.38;;;4.28;;
56868;SDS011;42754;0.000;0.000;2022-08-14T13:44:55;5.72;;;4.10;;
56868;SDS011;42754;0.000;0.000;2022-08-14T13:47:23;4.18;;;3.78;;
56868;SDS011;42754;0.000;0.000;2022-08-14T13:49:53;7.70;;;3.55;;
56868;SDS011;42754;0.000;0.000;2022-08-14T13:52:21;6.00;;;4.30;;
56868;SDS011;42754;0.000;0.000;2022-08-14T13:54:49;4.05;;;3.60;;
56868;SDS011;42754;0.000;0.000;2022-08-14T13:57:17;5.82;;;3.90;;
56868;SDS011;42754;0.000;0.000;2022-08-14T13:59:46;4.82;;;3.92;;
56868;SDS011;42754;0.000;0.000;2022-08-14T14:02:13;5.15;;;4.25;;
56868;SDS011;42754;0.000;0.000;2022-08-14T14:07:11;6.28;;;4.78;;
56868;SDS011;42754;0.000;0.000;2022-08-14T14:09:44;5.28;;;4.72;;
56868;SDS011;42754;0.000;0.000;2022-08-14T14:12:12;4.75;;;4.22;;
56868;SDS011;42754;0.000;0.000;2022-08-14T14:14:40;4.53;;;3.95;;
56868;SDS011;42754;0.000;0.000;2022-08-14T14:17:07;4.22;;;3.83;;
56868;SDS011;42754;0.000;0.000;2022-08-14T14:19:36;5.65;;;4.50;;
56868;SDS011;42754;0.000;0.000;2022-08-14T14:22:05;4.43;;;3.95;;
56868;SDS011;42754;0.000;0.000;2022-08-14T14:24:31;5.03;;;4.07;;
56868;SDS011;42754;0.000;0.000;2022-08-14T14:27:01;5.00;;;4.40;;
56868;SDS011;42754;0.000;0.000;2022-08-14T14:29:29;6.05;;;4.28;;
56868;SDS011;42754;0.000;0.000;2022-08-14T14:31:56;4.78;;;4.28;;
56868;SDS011;42754;0.000;0.000;2022-08-14T14:34:25;4.38;;;3.97;;
56868;SDS011;42754;0.000;0.000;2022-08-14T14:36:52;4.18;;;3.78;;
56868;SDS011;42754;0.000;0.000;2022-08-14T14:39:23;7.28;;;5.13;;
56868;SDS011;42754;0.000;0.000;2022-08-14T14:41:51;5.28;;;4.47;;
56868;SDS011;42754;0.000;0.000;2022-08-14T14:44:24;6.78;;;4.25;;
56868;SDS011;42754;0.000;0.000;2022-08-14T14:46:55;6.85;;;4.10;;
56868;SDS011;42754;0.000;0.000;2022-08-14T14:49:23;5.13;;;4.18;;
56868;SDS011;42754;0.000;0.000;2022-08-14T14:51:50;5.25;;;4.13;;
56868;SDS011;42754;0.000;0.000;2022-08-14T14:54:17;6.60;;;3.92;;
56868;SDS011;42754;0.000;0.000;2022-08-14T14:56:45;8.02;;;4.47;;
56868;SDS011;42754;0.000;0.000;2022-08-14T14:59:11;5.40;;;3.92;;
56868;SDS011;42754;0.000;0.000;2022-08-14T15:01:38;5.80;;;4.00;;
56868;SDS011;42754;0.000;0.000;2022-08-14T15:04:04;6.18;;;4.78;;
56868;SDS011;42754;0.000;0.000;2022-08-14T15:06:32;5.35;;;4.32;;
56868;SDS011;42754;0.000;0.000;2022-08-14T15:08:58;5.07;;;4.18;;
56868;SDS011;42754;0.000;0.000;2022-08-14T15:11:25;7.40;;;4.05;;
56868;SDS011;42754;0.000;0.000;2022-08-14T15:13:52;5.07;;;4.57;;
56868;SDS011;42754;0.000;0.000;2022-08-14T15:16:18;5.78;;;4.38;;
56868;SDS011;42754;0.000;0.000;2022-08-14T15:18:44;4.35;;;3.80;;
56868;SDS011;42754;0.000;0.000;2022-08-14T15:21:10;6.18;;;3.80;;
56868;SDS011;42754;0.000;0.000;2022-08-14T15:23:37;4.15;;;3.75;;
56868;SDS011;42754;0.000;0.000;2022-08-14T15:26:03;5.82;;;4.15;;
56868;SDS011;42754;0.000;0.000;2022-08-14T15:28:30;5.10;;;3.90;;
56868;SDS011;42754;0.000;0.000;2022-08-14T15:31:00;7.50;;;4.13;;
56868;SDS011;42754;0.000;0.000;2022-08-14T15:33:30;5.47;;;3.95;;